Time;durP1;ratioP1;P1;durP2;ratioP2;P2;SDS_P1;SDS_P2;PMS_P1;PMS_P2;Temp;Humidity;BMP_temperature;BMP_pressure;BME280_temperature;BME280_humidity;BME280_pressure;Samples;Min_cycle;Max_cycle;Signal;HPM_P1;HPM_P2
2022/11/29 00:01:50;;;;;;;27.23;10.25;;;;;;;;;;4976053;28;20023;-76
2022/11/29 00:04:16;;;;;;;34.28;8.98;;;;;;;;;;4975992;28;20023;-76
2022/11/29 00:06:42;;;;;;;28.45;10.70;;;;;;;;;;4990484;28;20030;-76
2022/11/29 00:09:10;;;;;;;31.38;9.75;;;;;;;;;;4995326;28;20026;-76
2022/11/29 00:14:22;;;;;;;63.83;11.40;;;;;;;;;;4995598;28;20089;-76
2022/11/29 00:16:52;;;;;;;26.42;9.48;;;;;;;;;;4995195;28;20728;-76
2022/11/29 00:19:18;;;;;;;54.05;10.35;;;;;;;;;;4995163;28;20035;-76
2022/11/29 00:21:44;;;;;;;28.55;9.57;;;;;;;;;;4995157;28;20030;-76
2022/11/29 00:24:10;;;;;;;23.42;8.95;;;;;;;;;;4995081;28;20030;-76
2022/11/29 00:26:36;;;;;;;20.52;8.68;;;;;;;;;;4995020;28;20076;-76
2022/11/29 00:29:02;;;;;;;16.48;7.70;;;;;;;;;;4995315;28;20027;-76
2022/11/29 00:31:29;;;;;;;20.77;9.00;;;;;;;;;;4977618;28;20023;-76
2022/11/29 00:33:56;;;;;;;16.92;8.07;;;;;;;;;;4994838;28;20080;-76
2022/11/29 00:36:22;;;;;;;44.97;10.55;;;;;;;;;;4995007;28;20030;-76
2022/11/29 00:38:48;;;;;;;22.55;9.45;;;;;;;;;;4994442;28;20029;-76
2022/11/29 00:41:14;;;;;;;14.65;8.70;;;;;;;;;;4994923;28;20023;-76
2022/11/29 00:43:40;;;;;;;16.90;8.13;;;;;;;;;;4994797;28;20040;-76
2022/11/29 00:46:07;;;;;;;19.90;8.43;;;;;;;;;;4994756;28;20453;-76
2022/11/29 00:48:33;;;;;;;27.95;9.18;;;;;;;;;;4994412;28;20035;-77
2022/11/29 00:51:00;;;;;;;17.17;8.05;;;;;;;;;;4994652;28;20026;-76
2022/11/29 00:53:26;;;;;;;18.70;8.45;;;;;;;;;;4994576;28;20054;-76
2022/11/29 00:55:52;;;;;;;50.63;11.00;;;;;;;;;;4977046;28;20109;-76
2022/11/29 00:58:19;;;;;;;31.10;8.70;;;;;;;;;;4994389;28;20023;-76
2022/11/29 01:00:46;;;;;;;16.73;9.07;;;;;;;;;;4994419;28;20062;-76
2022/11/29 01:03:12;;;;;;;23.85;8.88;;;;;;;;;;4994688;28;20022;-76
2022/11/29 01:05:39;;;;;;;14.10;7.85;;;;;;;;;;4994270;28;20363;-76
2022/11/29 01:08:05;;;;;;;17.05;7.70;;;;;;;;;;4994586;28;20026;-76
2022/11/29 01:10:31;;;;;;;20.88;7.63;;;;;;;;;;4994252;28;20480;-76
2022/11/29 01:12:57;;;;;;;15.50;8.00;;;;;;;;;;4994253;28;20464;-76
2022/11/29 01:15:23;;;;;;;19.92;8.27;;;;;;;;;;4994129;28;20077;-76
2022/11/29 01:17:49;;;;;;;14.73;7.57;;;;;;;;;;4994060;28;20401;-76
2022/11/29 01:20:16;;;;;;;16.92;8.40;;;;;;;;;;4980934;28;20038;-76
2022/11/29 01:22:42;;;;;;;16.15;8.80;;;;;;;;;;4982666;28;20026;-76
2022/11/29 01:25:08;;;;;;;22.23;9.60;;;;;;;;;;4993663;28;20060;-76
2022/11/29 01:27:34;;;;;;;34.40;8.63;;;;;;;;;;4986666;28;20031;-76
2022/11/29 01:30:00;;;;;;;26.90;8.40;;;;;;;;;;4974261;28;20461;-76
2022/11/29 01:32:26;;;;;;;26.25;7.97;;;;;;;;;;4974526;28;20031;-76
2022/11/29 01:34:52;;;;;;;47.05;10.23;;;;;;;;;;4976582;28;20106;-76
2022/11/29 01:37:18;;;;;;;28.55;8.65;;;;;;;;;;4980426;28;20110;-76
2022/11/29 01:39:45;;;;;;;22.33;8.57;;;;;;;;;;4974087;28;20401;-76
2022/11/29 01:42:11;;;;;;;28.95;9.02;;;;;;;;;;4976735;28;20031;-76
2022/11/29 01:44:37;;;;;;;51.47;9.98;;;;;;;;;;4993348;28;20661;-76
2022/11/29 01:47:03;;;;;;;49.38;10.55;;;;;;;;;;4973971;28;20064;-76
2022/11/29 01:49:32;;;;;;;66.15;11.20;;;;;;;;;;4964336;28;20046;-76
2022/11/29 01:52:03;;;;;;;62.80;10.80;;;;;;;;;;4992756;28;20029;-76
2022/11/29 01:54:30;;;;;;;52.10;10.50;;;;;;;;;;4974862;28;20466;-76
2022/11/29 01:56:58;;;;;;;48.60;9.95;;;;;;;;;;4985843;28;20110;-76
2022/11/29 01:59:26;;;;;;;38.72;10.07;;;;;;;;;;4993179;28;20454;-76
2022/11/29 02:01:52;;;;;;;29.33;8.98;;;;;;;;;;4993212;28;20465;-76
2022/11/29 02:04:18;;;;;;;38.17;9.05;;;;;;;;;;4986912;28;20393;-76
2022/11/29 02:06:45;;;;;;;35.33;9.43;;;;;;;;;;4973908;28;20027;-76
2022/11/29 02:09:29;;;;;;;28.42;10.63;;;;;;;;;;4998529;28;20461;-76
2022/11/29 02:12:11;;;;;;;34.75;9.18;;;;;;;;;;5012798;28;20034;-76
2022/11/29 02:14:58;;;;;;;21.30;8.38;;;;;;;;;;4995914;28;20029;-76
2022/11/29 02:17:32;;;;;;;40.20;9.73;;;;;;;;;;4993436;28;20022;-76
2022/11/29 02:20:17;;;;;;;33.03;9.45;;;;;;;;;;4992966;28;20118;-76
2022/11/29 02:22:52;;;;;;;22.40;7.63;;;;;;;;;;4992975;28;20026;-76
2022/11/29 02:25:24;;;;;;;34.50;8.23;;;;;;;;;;4980941;28;20067;-76
2022/11/29 02:28:09;;;;;;;36.40;9.07;;;;;;;;;;4989337;28;20030;-77
2022/11/29 02:30:49;;;;;;;27.33;8.50;;;;;;;;;;4956104;28;20557;-76
2022/11/29 02:33:15;;;;;;;24.27;8.40;;;;;;;;;;4981503;28;20041;-76
2022/11/29 02:35:54;;;;;;;23.70;9.15;;;;;;;;;;4974146;28;20027;-76
2022/11/29 02:38:26;;;;;;;31.58;9.48;;;;;;;;;;4992972;28;20026;-76
2022/11/29 02:40:52;;;;;;;33.83;9.18;;;;;;;;;;4992768;28;20031;-76
2022/11/29 02:43:27;;;;;;;18.67;8.23;;;;;;;;;;4992812;28;20026;-76
2022/11/29 02:45:56;;;;;;;18.77;8.30;;;;;;;;;;4992627;28;20081;-76
2022/11/29 02:48:28;;;;;;;18.40;8.27;;;;;;;;;;4992787;28;20031;-76
2022/11/29 02:50:54;;;;;;;15.55;7.93;;;;;;;;;;4992588;28;20058;-76
2022/11/29 02:53:20;;;;;;;18.60;8.52;;;;;;;;;;4992989;28;20344;-76
2022/11/29 02:55:51;;;;;;;21.77;9.27;;;;;;;;;;4992493;28;20027;-76
2022/11/29 02:58:26;;;;;;;17.17;7.50;;;;;;;;;;4992725;28;20037;-76
2022/11/29 03:01:16;;;;;;;16.25;8.00;;;;;;;;;;4992544;28;20031;-76
2022/11/29 03:03:47;;;;;;;17.83;8.23;;;;;;;;;;4996322;28;20033;-76
2022/11/29 03:06:16;;;;;;;17.70;7.85;;;;;;;;;;4996607;28;20027;-76
2022/11/29 03:08:42;;;;;;;17.80;8.10;;;;;;;;;;4996635;28;20026;-76
2022/11/29 03:11:11;;;;;;;23.00;8.80;;;;;;;;;;4996396;28;20559;-76
2022/11/29 03:13:40;;;;;;;18.13;8.75;;;;;;;;;;4996541;28;20450;-76
2022/11/29 03:16:28;;;;;;;23.60;8.73;;;;;;;;;;4996561;28;20034;-76
2022/11/29 03:19:04;;;;;;;18.02;9.05;;;;;;;;;;4996885;28;20035;-76
2022/11/29 03:21:51;;;;;;;14.75;8.60;;;;;;;;;;4996590;28;20105;-76
2022/11/29 03:24:21;;;;;;;18.25;7.90;;;;;;;;;;4996357;28;20026;-76
2022/11/29 03:26:53;;;;;;;15.90;8.60;;;;;;;;;;4996108;28;20041;-76
2022/11/29 03:29:27;;;;;;;15.93;7.85;;;;;;;;;;4978667;28;20029;-76
2022/11/29 03:32:01;;;;;;;14.88;7.75;;;;;;;;;;4996114;28;20030;-76
2022/11/29 03:34:39;;;;;;;13.70;7.88;;;;;;;;;;4996170;28;20081;-76
2022/11/29 03:37:12;;;;;;;27.38;8.07;;;;;;;;;;4995922;28;20105;-76
2022/11/29 03:39:44;;;;;;;21.52;8.25;;;;;;;;;;4996203;28;20037;-76
2022/11/29 03:42:30;;;;;;;33.03;8.80;;;;;;;;;;4995953;28;20026;-76
2022/11/29 03:45:08;;;;;;;32.80;8.90;;;;;;;;;;4979119;28;20047;-76
2022/11/29 03:47:53;;;;;;;26.05;9.05;;;;;;;;;;4995815;28;20365;-76
2022/11/29 03:50:21;;;;;;;29.00;8.73;;;;;;;;;;4995602;28;20050;-76
2022/11/29 03:52:49;;;;;;;32.72;9.63;;;;;;;;;;4995711;28;20027;-76
2022/11/29 03:55:24;;;;;;;21.85;8.00;;;;;;;;;;4995785;28;20022;-76
2022/11/29 03:57:59;;;;;;;14.35;7.03;;;;;;;;;;4995729;28;20480;-76
2022/11/29 04:00:28;;;;;;;15.32;8.55;;;;;;;;;;4995581;28;20034;-76
2022/11/29 04:03:13;;;;;;;25.83;8.00;;;;;;;;;;4995515;28;20031;-76
2022/11/29 04:05:54;;;;;;;18.55;7.88;;;;;;;;;;4995637;28;20030;-76
2022/11/29 04:08:23;;;;;;;18.30;7.00;;;;;;;;;;4995425;28;20026;-76
2022/11/29 04:11:01;;;;;;;61.33;10.63;;;;;;;;;;4978010;28;20038;-76
2022/11/29 04:13:39;;;;;;;249.38;21.00;;;;;;;;;;4994903;28;20034;-76
2022/11/29 04:16:26;;;;;;;137.63;14.25;;;;;;;;;;4975838;28;20031;-76
2022/11/29 04:18:58;;;;;;;142.85;13.32;;;;;;;;;;4975470;28;20525;-76
2022/11/29 04:21:30;;;;;;;19.77;7.72;;;;;;;;;;4975760;28;20114;-76
2022/11/29 04:23:59;;;;;;;107.47;12.73;;;;;;;;;;4975749;28;20082;-76
2022/11/29 04:26:38;;;;;;;58.80;9.82;;;;;;;;;;4975625;28;20497;-76
2022/11/29 04:29:10;;;;;;;37.38;8.70;;;;;;;;;;4975947;28;20026;-76
2022/11/29 04:31:58;;;;;;;39.20;9.77;;;;;;;;;;4975705;28;20070;-76
2022/11/29 04:34:24;;;;;;;29.55;8.98;;;;;;;;;;4975841;28;20061;-76
2022/11/29 04:36:50;;;;;;;20.63;8.60;;;;;;;;;;4975551;28;20050;-77
2022/11/29 04:39:23;;;;;;;22.20;8.48;;;;;;;;;;4975351;28;20042;-76
2022/11/29 04:41:51;;;;;;;22.08;7.78;;;;;;;;;;4975593;28;20035;-76
2022/11/29 04:44:27;;;;;;;29.58;8.60;;;;;;;;;;4975356;28;20035;-76
2022/11/29 04:46:55;;;;;;;18.25;7.90;;;;;;;;;;4975542;28;20541;-76
2022/11/29 04:49:24;;;;;;;15.35;8.45;;;;;;;;;;4974875;28;20055;-76
2022/11/29 04:51:50;;;;;;;88.93;12.82;;;;;;;;;;4975357;28;20054;-76
2022/11/29 04:54:19;;;;;;;25.13;8.90;;;;;;;;;;4975095;28;20057;-76
2022/11/29 04:56:47;;;;;;;158.45;16.27;;;;;;;;;;4975261;28;20027;-76
2022/11/29 04:59:19;;;;;;;51.00;10.73;;;;;;;;;;4974967;28;20034;-76
2022/11/29 05:02:04;;;;;;;28.52;9.23;;;;;;;;;;4975021;28;20082;-76
2022/11/29 05:04:40;;;;;;;57.92;10.18;;;;;;;;;;4974972;28;20027;-76
2022/11/29 05:07:17;;;;;;;33.40;9.02;;;;;;;;;;4975006;28;20057;-76
2022/11/29 05:09:43;;;;;;;54.42;10.25;;;;;;;;;;4974992;28;20027;-76
2022/11/29 05:12:27;;;;;;;80.30;10.85;;;;;;;;;;4974946;28;20085;-76
2022/11/29 05:14:59;;;;;;;43.88;9.15;;;;;;;;;;4974913;28;20023;-76
2022/11/29 05:17:29;;;;;;;55.40;10.40;;;;;;;;;;4974893;28;20034;-77
2022/11/29 05:20:18;;;;;;;75.97;10.55;;;;;;;;;;4957473;28;20050;-77
2022/11/29 05:22:44;;;;;;;43.20;9.48;;;;;;;;;;4938973;28;20454;-77
2022/11/29 05:25:10;;;;;;;68.38;10.95;;;;;;;;;;4974267;28;20047;-77
2022/11/29 05:27:57;;;;;;;35.95;9.82;;;;;;;;;;4974193;28;20086;-76
2022/11/29 05:30:24;;;;;;;59.40;10.40;;;;;;;;;;4974537;28;20031;-76
2022/11/29 05:33:08;;;;;;;60.70;9.80;;;;;;;;;;4980440;28;20128;-76
2022/11/29 05:35:46;;;;;;;27.98;8.65;;;;;;;;;;4995735;28;20034;-76
2022/11/29 05:38:12;;;;;;;41.88;9.55;;;;;;;;;;5003958;28;20019;-76
2022/11/29 05:40:57;;;;;;;32.47;9.05;;;;;;;;;;4993610;28;20165;-76
2022/11/29 05:43:41;;;;;;;56.35;9.70;;;;;;;;;;4993373;28;20038;-76
2022/11/29 05:46:11;;;;;;;70.50;11.57;;;;;;;;;;4987045;28;20109;-76
2022/11/29 05:48:44;;;;;;;23.15;7.60;;;;;;;;;;4973726;28;20114;-77
2022/11/29 05:51:10;;;;;;;35.75;9.38;;;;;;;;;;4975044;28;20027;-76
2022/11/29 05:53:43;;;;;;;16.13;7.22;;;;;;;;;;4976965;28;20405;-76
2022/11/29 05:56:09;;;;;;;19.80;7.38;;;;;;;;;;4974115;28;20030;-76
2022/11/29 05:58:47;;;;;;;22.27;7.22;;;;;;;;;;4973872;28;20069;-75
2022/11/29 06:01:16;;;;;;;38.22;8.77;;;;;;;;;;4973917;28;20085;-76
2022/11/29 06:03:52;;;;;;;35.17;8.38;;;;;;;;;;4973799;28;20371;-75
2022/11/29 06:06:22;;;;;;;38.67;8.20;;;;;;;;;;4973932;28;20446;-76
2022/11/29 06:09:06;;;;;;;22.05;7.65;;;;;;;;;;4973797;28;20101;-76
2022/11/29 06:11:35;;;;;;;20.92;7.82;;;;;;;;;;4973825;28;20030;-75
2022/11/29 06:14:04;;;;;;;46.28;7.88;;;;;;;;;;4973813;28;20078;-76
2022/11/29 06:16:39;;;;;;;45.78;8.38;;;;;;;;;;4974024;28;20031;-76
2022/11/29 06:19:05;;;;;;;67.55;10.15;;;;;;;;;;4973704;28;20377;-76
2022/11/29 06:21:39;;;;;;;30.00;7.53;;;;;;;;;;4973744;28;20462;-76
2022/11/29 06:24:14;;;;;;;26.73;6.65;;;;;;;;;;4973618;28;20109;-76
2022/11/29 06:26:46;;;;;;;22.75;7.38;;;;;;;;;;4973567;28;20082;-76
2022/11/29 06:29:18;;;;;;;21.50;6.85;;;;;;;;;;4973663;28;20031;-76
2022/11/29 06:31:47;;;;;;;51.15;8.27;;;;;;;;;;4973585;28;20035;-76
2022/11/29 06:34:21;;;;;;;29.98;7.55;;;;;;;;;;4973396;28;20481;-76
2022/11/29 06:36:47;;;;;;;39.13;7.63;;;;;;;;;;4973348;28;20019;-76
2022/11/29 06:39:13;;;;;;;34.75;7.60;;;;;;;;;;4973453;28;20582;-76
2022/11/29 06:41:39;;;;;;;27.17;7.95;;;;;;;;;;4973585;28;20018;-76
2022/11/29 06:44:06;;;;;;;35.65;7.90;;;;;;;;;;4973376;28;20469;-75
2022/11/29 06:46:46;;;;;;;38.90;6.80;;;;;;;;;;4973411;28;20111;-75
2022/11/29 06:49:12;;;;;;;30.85;6.40;;;;;;;;;;4973160;28;20150;-76
2022/11/29 06:51:51;;;;;;;24.33;6.22;;;;;;;;;;4973291;28;20039;-76
2022/11/29 06:54:29;;;;;;;28.10;6.28;;;;;;;;;;4973366;28;20030;-76
2022/11/29 06:57:01;;;;;;;25.60;6.07;;;;;;;;;;4973337;28;20077;-75
2022/11/29 06:59:47;;;;;;;14.77;5.38;;;;;;;;;;4973198;28;20039;-76
2022/11/29 07:02:20;;;;;;;16.90;5.50;;;;;;;;;;4973331;28;20045;-76
2022/11/29 07:04:54;;;;;;;22.85;5.60;;;;;;;;;;4973080;28;20074;-76
2022/11/29 07:07:21;;;;;;;16.27;5.75;;;;;;;;;;4973286;28;20114;-76
2022/11/29 07:09:50;;;;;;;16.40;5.50;;;;;;;;;;4972352;28;20027;-75
2022/11/29 07:12:16;;;;;;;19.40;5.75;;;;;;;;;;4972969;28;20038;-76
2022/11/29 07:14:42;;;;;;;20.08;5.72;;;;;;;;;;4972577;28;20097;-76
2022/11/29 07:17:08;;;;;;;20.60;5.07;;;;;;;;;;4972869;28;20462;-75
2022/11/29 07:19:44;;;;;;;17.25;5.07;;;;;;;;;;4972179;28;20043;-76
2022/11/29 07:22:27;;;;;;;16.88;5.18;;;;;;;;;;4972337;28;20023;-76
2022/11/29 07:24:53;;;;;;;19.35;5.10;;;;;;;;;;4980016;28;20681;-76
2022/11/29 07:27:20;;;;;;;14.10;4.38;;;;;;;;;;4974293;28;20035;-75
2022/11/29 07:29:46;;;;;;;22.02;4.85;;;;;;;;;;4972369;28;20122;-76
2022/11/29 07:32:39;;;;;;;23.35;5.95;;;;;;;;;;4954788;28;20134;-76
2022/11/29 07:35:12;;;;;;;22.92;5.70;;;;;;;;;;4972586;28;20419;-75
2022/11/29 07:37:56;;;;;;;16.05;5.05;;;;;;;;;;4986874;28;20681;-76
2022/11/29 07:40:45;;;;;;;19.17;4.60;;;;;;;;;;4992503;28;20030;-76
2022/11/29 07:43:22;;;;;;;12.43;4.88;;;;;;;;;;4984794;28;20042;-75
2022/11/29 07:45:48;;;;;;;16.30;5.15;;;;;;;;;;4985239;28;20454;-76
2022/11/29 07:48:15;;;;;;;20.45;4.32;;;;;;;;;;4972827;28;20023;-76
2022/11/29 07:50:41;;;;;;;22.85;4.82;;;;;;;;;;4975653;28;20059;-76
2022/11/29 07:53:09;;;;;;;12.85;4.53;;;;;;;;;;4976670;28;20373;-76
2022/11/29 07:55:36;;;;;;;19.73;4.88;;;;;;;;;;4976219;28;20077;-75
2022/11/29 07:58:02;;;;;;;14.07;4.60;;;;;;;;;;4975736;28;20023;-76
2022/11/29 08:00:28;;;;;;;17.05;4.97;;;;;;;;;;4975694;28;20045;-75
2022/11/29 08:02:54;;;;;;;18.30;4.63;;;;;;;;;;4976278;28;20393;-75
2022/11/29 08:05:21;;;;;;;21.98;4.60;;;;;;;;;;4976129;28;20034;-76
2022/11/29 08:07:47;;;;;;;18.67;4.28;;;;;;;;;;4976265;28;20042;-76
2022/11/29 08:10:15;;;;;;;19.38;5.65;;;;;;;;;;4975735;28;20030;-76
2022/11/29 08:12:45;;;;;;;16.40;4.53;;;;;;;;;;4980783;28;20097;-75
2022/11/29 08:15:11;;;;;;;21.13;4.82;;;;;;;;;;4995243;28;20029;-76
2022/11/29 08:17:38;;;;;;;22.02;4.47;;;;;;;;;;4994632;28;20097;-76
2022/11/29 08:20:04;;;;;;;21.08;4.50;;;;;;;;;;5002484;28;20042;-76
2022/11/29 08:22:30;;;;;;;17.90;4.38;;;;;;;;;;5014674;28;20046;-76
2022/11/29 08:24:57;;;;;;;19.25;4.07;;;;;;;;;;5014657;28;20057;-76
2022/11/29 08:27:23;;;;;;;20.60;4.45;;;;;;;;;;5014779;28;20030;-76
2022/11/29 08:29:49;;;;;;;20.63;4.38;;;;;;;;;;5014680;28;20037;-76
2022/11/29 08:32:17;;;;;;;20.52;4.35;;;;;;;;;;5014525;28;20026;-76
2022/11/29 08:34:43;;;;;;;21.92;4.40;;;;;;;;;;5014375;28;20041;-76
2022/11/29 08:37:09;;;;;;;22.65;3.70;;;;;;;;;;5014486;28;20026;-76
2022/11/29 08:39:35;;;;;;;21.23;3.60;;;;;;;;;;5014289;28;20120;-76
2022/11/29 08:42:01;;;;;;;18.33;3.92;;;;;;;;;;5014277;28;20021;-76
2022/11/29 08:44:27;;;;;;;17.52;4.03;;;;;;;;;;5014289;28;20030;-76
2022/11/29 08:55:07;;;;;;;27.88;5.13;;;;;;;;;;4992017;28;20041;-77
2022/11/29 08:57:33;;;;;;;23.92;5.43;;;;;;;;;;4994642;28;20033;-77
2022/11/29 08:59:59;;;;;;;31.02;4.40;;;;;;;;;;4994495;28;20045;-77
2022/11/29 09:02:25;;;;;;;17.25;4.72;;;;;;;;;;4994415;28;20031;-77
2022/11/29 09:04:51;;;;;;;26.65;5.78;;;;;;;;;;4994500;28;20737;-77
2022/11/29 09:07:17;;;;;;;23.65;5.85;;;;;;;;;;4978236;28;20037;-77
2022/11/29 09:09:43;;;;;;;30.38;6.97;;;;;;;;;;4994491;28;20027;-77
2022/11/29 09:12:09;;;;;;;25.40;5.90;;;;;;;;;;4994270;28;20027;-77
2022/11/29 09:14:35;;;;;;;24.80;5.15;;;;;;;;;;4994313;28;20038;-77
2022/11/29 09:17:01;;;;;;;25.55;5.15;;;;;;;;;;4994263;28;20484;-77
2022/11/29 09:19:27;;;;;;;22.75;5.07;;;;;;;;;;4994345;28;20022;-77
2022/11/29 09:21:53;;;;;;;27.73;4.85;;;;;;;;;;4998800;28;20030;-77
2022/11/29 09:24:20;;;;;;;20.52;5.22;;;;;;;;;;4997546;28;20065;-77
2022/11/29 09:26:47;;;;;;;20.30;4.47;;;;;;;;;;4994134;28;20023;-77
2022/11/29 09:29:14;;;;;;;24.88;5.18;;;;;;;;;;4993736;28;20118;-77
2022/11/29 09:31:40;;;;;;;19.42;3.85;;;;;;;;;;4993902;28;20073;-77
2022/11/29 09:34:06;;;;;;;21.67;4.07;;;;;;;;;;4994185;28;20026;-77
2022/11/29 09:36:32;;;;;;;25.98;5.78;;;;;;;;;;4994298;28;20536;-77
2022/11/29 09:38:59;;;;;;;24.45;4.65;;;;;;;;;;4976040;28;20015;-77
2022/11/29 09:41:28;;;;;;;24.30;4.05;;;;;;;;;;4994004;28;20034;-77
2022/11/29 09:43:54;;;;;;;27.98;4.68;;;;;;;;;;4957104;28;20117;-77
2022/11/29 09:46:23;;;;;;;23.45;4.70;;;;;;;;;;4974565;28;20439;-77
2022/11/29 09:48:48;;;;;;;23.58;4.93;;;;;;;;;;4974183;28;20027;-77
2022/11/29 09:51:14;;;;;;;23.02;4.32;;;;;;;;;;4974829;28;20034;-77
2022/11/29 09:53:52;;;;;;;19.73;3.92;;;;;;;;;;4974551;28;20022;-77
2022/11/29 09:56:31;;;;;;;20.35;4.25;;;;;;;;;;4991245;28;20492;-77
2022/11/29 09:58:59;;;;;;;17.50;4.13;;;;;;;;;;4993744;28;20026;-77
2022/11/29 10:01:30;;;;;;;18.35;3.90;;;;;;;;;;4993891;28;20092;-77
2022/11/29 10:04:15;;;;;;;17.90;3.50;;;;;;;;;;4993947;28;20042;-77
2022/11/29 10:06:50;;;;;;;15.60;4.03;;;;;;;;;;4993919;28;20026;-77
2022/11/29 10:09:26;;;;;;;20.00;4.40;;;;;;;;;;4993831;28;20034;-77
2022/11/29 10:11:59;;;;;;;20.38;4.13;;;;;;;;;;4994174;28;20029;-77
2022/11/29 10:14:38;;;;;;;21.67;4.13;;;;;;;;;;4994693;28;20066;-78
2022/11/29 10:17:11;;;;;;;14.98;3.47;;;;;;;;;;4994526;28;20030;-77
2022/11/29 10:19:40;;;;;;;15.20;3.00;;;;;;;;;;4990132;28;20034;-77
2022/11/29 10:22:09;;;;;;;19.80;4.50;;;;;;;;;;4998523;28;20025;-77
2022/11/29 10:24:37;;;;;;;19.10;4.25;;;;;;;;;;4980333;28;20085;-77
2022/11/29 10:27:10;;;;;;;16.48;3.17;;;;;;;;;;5001852;28;20058;-77
2022/11/29 10:29:37;;;;;;;15.80;4.75;;;;;;;;;;4996472;28;20109;-78
2022/11/29 10:32:09;;;;;;;16.35;4.22;;;;;;;;;;5013483;28;20557;-77
2022/11/29 10:34:35;;;;;;;16.20;3.50;;;;;;;;;;4997419;28;20108;-78
2022/11/29 10:37:01;;;;;;;15.82;3.70;;;;;;;;;;4994220;28;20027;-78
2022/11/29 10:39:41;;;;;;;19.23;3.42;;;;;;;;;;4994182;28;20073;-77
2022/11/29 10:42:47;;;;;;;13.65;4.50;;;;;;;;;;4983577;28;20057;-78
2022/11/29 10:44:59;;;;;;;19.70;3.63;;;;;;;;;;5011716;28;20108;-77
2022/11/29 10:47:25;;;;;;;12.43;3.20;;;;;;;;;;5013080;28;20479;-77
2022/11/29 10:49:51;;;;;;;16.73;3.97;;;;;;;;;;5012833;28;20497;-77
2022/11/29 10:52:21;;;;;;;15.07;3.35;;;;;;;;;;5002961;28;20080;-77
2022/11/29 10:54:48;;;;;;;9.68;3.38;;;;;;;;;;4993888;28;20022;-77
2022/11/29 10:57:15;;;;;;;18.70;4.45;;;;;;;;;;4993839;28;20037;-77
2022/11/29 10:59:42;;;;;;;12.07;3.80;;;;;;;;;;4993588;28;20042;-77
2022/11/29 11:02:16;;;;;;;14.32;3.00;;;;;;;;;;4986544;28;20673;-78
2022/11/29 11:04:44;;;;;;;14.88;2.88;;;;;;;;;;4974026;28;20022;-77
2022/11/29 11:07:21;;;;;;;11.13;3.00;;;;;;;;;;4974190;28;20027;-77
2022/11/29 11:09:49;;;;;;;15.68;4.07;;;;;;;;;;4985774;28;20057;-78
2022/11/29 11:12:15;;;;;;;20.80;3.65;;;;;;;;;;4986406;28;20520;-77
2022/11/29 11:14:42;;;;;;;24.98;5.57;;;;;;;;;;4983213;28;20062;-77
2022/11/29 11:17:25;;;;;;;13.70;3.55;;;;;;;;;;4993455;28;20058;-77
2022/11/29 11:20:18;;;;;;;13.38;3.38;;;;;;;;;;4992959;28;20042;-77
2022/11/29 11:22:44;;;;;;;15.02;3.13;;;;;;;;;;4990199;28;20034;-77
2022/11/29 11:25:28;;;;;;;12.80;4.22;;;;;;;;;;4991510;28;20030;-77
2022/11/29 11:27:54;;;;;;;21.90;3.92;;;;;;;;;;4994023;28;20105;-77
2022/11/29 11:30:21;;;;;;;8.70;2.65;;;;;;;;;;4999693;28;20061;-77
2022/11/29 11:33:05;;;;;;;15.75;3.67;;;;;;;;;;4996293;28;20097;-77
2022/11/29 11:35:31;;;;;;;14.95;3.33;;;;;;;;;;4984495;28;20035;-78
2022/11/29 11:37:57;;;;;;;12.05;3.50;;;;;;;;;;4987559;28;20736;-78
2022/11/29 11:40:28;;;;;;;12.60;3.28;;;;;;;;;;4997424;28;20109;-78
2022/11/29 11:42:56;;;;;;;16.08;2.88;;;;;;;;;;4981945;28;20105;-77
2022/11/29 11:45:22;;;;;;;12.65;2.90;;;;;;;;;;4977906;28;20127;-78
2022/11/29 11:47:49;;;;;;;16.17;3.00;;;;;;;;;;4976919;28;20066;-77
2022/11/29 11:50:24;;;;;;;15.52;3.17;;;;;;;;;;4978228;28;20054;-78
2022/11/29 11:52:52;;;;;;;14.73;3.10;;;;;;;;;;4997682;28;20030;-77
2022/11/29 11:55:20;;;;;;;16.30;3.22;;;;;;;;;;4987924;28;20026;-77
2022/11/29 11:58:07;;;;;;;17.88;3.90;;;;;;;;;;4977927;28;20098;-78
2022/11/29 12:00:59;;;;;;;13.18;2.95;;;7.40;99.90;;;;;;4974663;28;20038;-78
2022/11/29 12:03:48;;;;;;;12.05;2.50;;;11.00;99.90;;;;;;4997322;28;20386;-77
2022/11/29 12:06:24;;;;;;;17.02;3.00;;;11.00;99.90;;;;;;4997005;28;20185;-77
2022/11/29 12:08:54;;;;;;;10.32;2.58;;;10.90;99.90;;;;;;4984639;28;20486;-78
2022/11/29 12:11:20;;;;;;;12.75;2.95;;;11.00;99.90;;;;;;4960493;28;20543;-77
2022/11/29 12:13:58;;;;;;;13.00;3.83;;;11.00;99.90;;;;;;4960116;28;20554;-77
2022/11/29 12:16:37;;;;;;;16.25;3.45;;;11.20;99.90;;;;;;4974813;28;20493;-77
2022/11/29 12:19:37;;;;;;;15.65;3.90;;;11.20;99.90;;;;;;4996551;28;20030;-77
2022/11/29 12:22:07;;;;;;;11.18;2.60;;;11.30;99.90;;;;;;4995953;28;20126;-77
2022/11/29 12:24:46;;;;;;;;;;;11.30;99.90;;;;;;4997513;28;20049;-77
2022/11/29 12:27:14;;;;;;;8.93;2.97;;;11.10;99.90;;;;;;4988054;28;19912;-77
2022/11/29 12:29:40;;;;;;;9.07;3.05;;;11.20;99.90;;;;;;4980416;28;20053;-77
2022/11/29 12:32:05;;;;;;;10.27;3.13;;;11.20;99.90;;;;;;4987453;28;20454;-78
2022/11/29 12:34:33;;;;;;;11.45;3.67;;;11.20;99.90;;;;;;4995582;28;20023;-78
2022/11/29 12:37:19;;;;;;;11.88;4.85;;;11.20;99.90;;;;;;4996322;28;20033;-77
2022/11/29 12:39:51;;;;;;;15.57;4.63;;;11.20;99.90;;;;;;4977301;28;20062;-77
2022/11/29 12:42:30;;;;;;;13.70;4.63;;;11.20;99.90;;;;;;4977117;28;20029;-77
2022/11/29 12:45:38;;;;;;;9.00;4.05;;;11.20;99.90;;;;;;4977313;28;20114;-77
2022/11/29 12:48:25;;;;;;;11.15;5.47;;;11.10;99.90;;;;;;4962762;28;20030;-78
2022/11/29 12:50:54;;;;;;;11.52;4.85;;;11.10;99.90;;;;;;4996093;28;20061;-78
2022/11/29 12:53:44;;;;;;;16.30;5.43;;;11.10;99.90;;;;;;4996118;28;20018;-78
2022/11/29 12:56:53;;;;;;;12.00;4.97;;;11.10;99.90;;;;;;4996926;28;20054;-77
2022/11/29 12:59:56;;;;;;;9.27;5.00;;;11.10;99.90;;;;;;4955301;28;20031;-78
2022/11/29 13:02:55;;;;;;;15.45;5.13;;;11.10;99.90;;;;;;4996415;28;20480;-77
2022/11/29 13:05:41;;;;;;;20.55;5.43;;;11.10;99.90;;;;;;4996508;28;20635;-78
2022/11/29 13:08:37;;;;;;;15.57;5.00;;;11.00;99.90;;;;;;4996049;28;20066;-77
2022/11/29 13:11:31;;;;;;;12.68;5.47;;;11.10;99.90;;;;;;4996211;28;20030;-77
2022/11/29 13:14:13;;;;;;;11.60;6.28;;;11.10;99.90;;;;;;4975753;28;20023;-77
2022/11/29 13:17:00;;;;;;;17.45;6.20;;;11.20;99.90;;;;;;4975241;28;20101;-77
2022/11/29 13:19:54;;;;;;;16.83;7.03;;;11.30;99.90;;;;;;4978032;28;20029;-77
2022/11/29 13:22:42;;;;;;;17.65;8.63;;;11.20;99.90;;;;;;4993120;28;20072;-77
2022/11/29 13:25:20;;;;;;;17.92;8.82;;;11.10;99.90;;;;;;4975298;28;20026;-78
2022/11/29 13:27:57;;;;;;;18.00;7.65;;;11.20;99.90;;;;;;4975014;28;20094;-78
2022/11/29 13:30:23;;;;;;;16.65;8.23;;;11.20;99.90;;;;;;4978098;28;20035;-77
2022/11/29 13:33:01;;;;;;;13.13;6.65;;;11.30;99.90;;;;;;4991802;28;20053;-78
2022/11/29 13:35:53;;;;;;;11.90;6.82;;;11.20;99.90;;;;;;4984796;28;20037;-77
2022/11/29 13:38:44;;;;;;;10.60;6.20;;;11.00;99.90;;;;;;4981152;28;20034;-77
2022/11/29 13:41:30;;;;;;;12.82;6.45;;;11.00;99.90;;;;;;4976021;28;20248;-77
2022/11/29 13:44:15;;;;;;;11.35;6.68;;;11.10;99.90;;;;;;4982050;28;20031;-76
2022/11/29 13:46:45;;;;;;;11.15;6.40;;;11.20;99.90;;;;;;4981482;28;20493;-77
2022/11/29 13:49:41;;;;;;;12.27;6.57;;;11.20;99.90;;;;;;4985879;28;20046;-77
2022/11/29 13:52:26;;;;;;;12.70;6.90;;;11.10;99.90;;;;;;4982409;28;20026;-77
2022/11/29 13:55:13;;;;;;;14.07;7.88;;;11.00;99.90;;;;;;4979922;28;20026;-77
2022/11/29 13:57:54;;;;;;;11.02;7.00;;;10.90;99.90;;;;;;4978297;28;20166;-77
2022/11/29 14:00:34;;;;;;;15.57;7.40;;;10.90;99.90;;;;;;4981438;28;20030;-77
2022/11/29 14:03:21;;;;;;;11.35;6.80;;;10.80;99.90;;;;;;4978752;28;20533;-77
2022/11/29 14:05:52;;;;;;;11.60;7.38;;;10.70;99.90;;;;;;4985035;28;20369;-77
2022/11/29 14:08:25;;;;;;;;;;;10.70;99.90;;;;;;4988712;28;20045;-77
2022/11/29 14:10:59;;;;;;;14.77;7.80;;;10.70;99.90;;;;;;4993246;28;19909;-77
2022/11/29 14:13:31;;;;;;;11.70;7.30;;;10.70;99.90;;;;;;4979606;28;20081;-76
2022/11/29 14:16:00;;;;;;;13.63;7.50;;;10.70;99.90;;;;;;4956564;28;20031;-77
2022/11/29 14:18:40;;;;;;;13.10;7.30;;;10.60;99.90;;;;;;4981022;28;20064;-76
2022/11/29 14:21:06;;;;;;;;;;;10.50;99.90;;;;;;4993629;28;20036;-77
2022/11/29 14:23:40;;;;;;;12.32;7.55;;;10.50;99.90;;;;;;4992947;28;19937;-77
2022/11/29 14:26:06;;;;;;;10.10;7.22;;;10.50;99.90;;;;;;4975461;28;20030;-77
2022/11/29 14:28:34;;;;;;;11.52;7.57;;;10.50;99.90;;;;;;4992946;28;20025;-76
2022/11/29 14:31:02;;;;;;;10.93;7.25;;;10.40;99.90;;;;;;4991387;28;20085;-77
2022/11/29 14:33:36;;;;;;;13.43;7.00;;;10.40;99.90;;;;;;4972742;28;20035;-76
2022/11/29 14:36:02;;;;;;;11.23;7.63;;;10.40;99.90;;;;;;4973391;28;20030;-76
2022/11/29 14:38:57;;;;;;;12.25;7.30;;;10.40;99.90;;;;;;4973430;28;20019;-76
2022/11/29 14:41:38;;;;;;;10.82;6.93;;;10.40;99.90;;;;;;4957793;28;20038;-76
2022/11/29 14:44:24;;;;;;;;;;;10.30;99.90;;;;;;4993525;28;20641;-76
2022/11/29 14:47:05;;;;;;;9.73;5.85;;;10.20;99.90;;;;;;4992781;28;19913;-76
2022/11/29 14:49:39;;;;;;;11.70;6.78;;;10.20;99.90;;;;;;4992418;28;20045;-77